createdAt,value
2022-09-10T00:00:13.073Z,16.70
2022-09-10T00:02:40.045Z,16.70
2022-09-10T00:05:07.544Z,16.70
2022-09-10T00:07:34.256Z,16.70
2022-09-10T00:10:00.985Z,16.90
2022-09-10T00:12:27.705Z,16.70
2022-09-10T00:14:54.518Z,16.70
2022-09-10T00:17:21.304Z,17.90
2022-09-10T00:19:47.993Z,16.70
2022-09-10T00:22:14.969Z,16.60
2022-09-10T00:24:41.777Z,16.70
2022-09-10T00:27:09.190Z,16.70
2022-09-10T00:29:35.876Z,16.70
2022-09-10T00:32:04.316Z,16.70
2022-09-10T00:34:31.093Z,16.70
2022-09-10T00:36:59.344Z,16.70
2022-09-10T00:39:26.106Z,16.90
2022-09-10T00:41:55.110Z,16.70
2022-09-10T00:44:39.962Z,16.70
2022-09-10T00:47:11.373Z,16.70
2022-09-10T00:49:46.508Z,16.70
2022-09-10T00:52:13.983Z,16.70
2022-09-10T00:54:43.513Z,16.60
2022-09-10T00:57:14.902Z,16.60
2022-09-10T00:59:46.620Z,16.70
2022-09-10T01:02:14.953Z,17.80
2022-09-10T01:04:42.968Z,16.70
2022-09-10T01:07:11.263Z,16.70
2022-09-10T01:09:39.785Z,16.60
2022-09-10T01:12:33.149Z,16.70
2022-09-10T01:15:28.857Z,16.60
2022-09-10T01:18:32.820Z,16.60
2022-09-10T01:21:20.482Z,16.60
2022-09-10T01:24:26.264Z,16.60
2022-09-10T01:27:31.445Z,16.60
2022-09-10T01:30:09.528Z,16.60
2022-09-10T01:32:54.864Z,16.60
2022-09-10T01:35:36.499Z,16.60
2022-09-10T01:38:11.437Z,16.60
2022-09-10T01:40:38.699Z,16.60
2022-09-10T01:43:08.449Z,16.60
2022-09-10T01:46:05.487Z,16.60
2022-09-10T01:48:54.685Z,16.60
2022-09-10T01:51:43.405Z,16.60
2022-09-10T01:54:26.340Z,16.50
2022-09-10T01:57:08.062Z,16.50
2022-09-10T02:00:08.805Z,16.50
2022-09-10T02:02:48.550Z,16.50
2022-09-10T02:05:18.672Z,16.40
2022-09-10T02:07:46.609Z,16.50
2022-09-10T02:10:13.292Z,16.50
2022-09-10T02:12:40.141Z,16.40
2022-09-10T02:15:08.567Z,16.50
2022-09-10T02:17:37.858Z,16.40
2022-09-10T02:20:08.556Z,16.40
2022-09-10T02:22:36.818Z,16.40
2022-09-10T02:25:04.717Z,16.40
2022-09-10T02:27:32.959Z,16.40
2022-09-10T02:29:59.634Z,16.40
2022-09-10T02:32:26.351Z,16.40
2022-09-10T02:34:53.049Z,16.50
2022-09-10T02:37:20.217Z,16.40
2022-09-10T02:39:46.991Z,16.30
2022-09-10T02:42:16.969Z,16.40
2022-09-10T02:44:44.764Z,16.30
2022-09-10T02:47:11.683Z,16.40
2022-09-10T02:49:38.366Z,16.40
2022-09-10T02:52:05.234Z,16.80
2022-09-10T02:54:32.549Z,16.40
2022-09-10T02:56:59.336Z,16.40
2022-09-10T02:59:26.110Z,16.40
2022-09-10T03:01:54.491Z,16.30
2022-09-10T03:04:21.314Z,16.30
2022-09-10T03:06:49.468Z,16.30
2022-09-10T03:09:17.143Z,16.30
2022-09-10T03:11:43.825Z,16.30
2022-09-10T03:14:11.959Z,16.30
2022-09-10T03:16:40.189Z,16.30
2022-09-10T03:19:06.954Z,16.30
2022-09-10T03:21:34.424Z,16.30
2022-09-10T03:24:01.251Z,16.30
2022-09-10T03:26:27.948Z,16.30
2022-09-10T03:28:54.781Z,16.30
2022-09-10T03:31:21.819Z,16.30
2022-09-10T03:33:49.195Z,16.30
2022-09-10T03:36:15.990Z,16.30
2022-09-10T03:38:42.686Z,16.30
2022-09-10T03:41:09.865Z,16.30
2022-09-10T03:43:36.926Z,16.30
2022-09-10T03:46:04.021Z,16.30
2022-09-10T03:48:30.811Z,16.30
2022-09-10T03:50:57.552Z,16.30
2022-09-10T03:53:24.253Z,16.20
2022-09-10T03:55:51.871Z,16.20
2022-09-10T03:58:18.988Z,16.20
2022-09-10T04:00:46.637Z,16.10
2022-09-10T04:03:14.618Z,16.20
2022-09-10T04:05:45.089Z,16.10
2022-09-10T04:08:13.169Z,16.10
2022-09-10T04:10:40.961Z,16.10
2022-09-10T04:13:08.057Z,16.10
2022-09-10T04:15:35.049Z,16.10
2022-09-10T04:18:01.826Z,16.10
2022-09-10T04:20:28.676Z,16.10
2022-09-10T04:22:56.758Z,16.00
2022-09-10T04:25:23.657Z,16.00
2022-09-10T04:27:50.816Z,16.00
2022-09-10T04:30:18.319Z,16.00
2022-09-10T04:32:45.346Z,16.00
2022-09-10T04:35:15.384Z,16.00
2022-09-10T04:37:43.200Z,16.00
2022-09-10T04:40:10.612Z,16.00
2022-09-10T04:42:38.322Z,15.90
2022-09-10T04:45:06.224Z,16.00
2022-09-10T04:47:34.122Z,16.00
2022-09-10T04:50:01.094Z,15.90
2022-09-10T04:52:28.933Z,15.90
2022-09-10T04:54:55.648Z,15.90
2022-09-10T04:57:22.563Z,15.90
2022-09-10T04:59:49.246Z,15.90
2022-09-10T05:02:16.105Z,15.90
2022-09-10T05:04:43.380Z,15.90
2022-09-10T05:07:10.106Z,15.90
2022-09-10T05:09:36.856Z,15.90
2022-09-10T05:12:04.290Z,15.90
2022-09-10T05:14:30.985Z,15.90
2022-09-10T05:16:57.837Z,15.90
2022-09-10T05:19:24.534Z,15.90
2022-09-10T05:21:51.586Z,16.70
2022-09-10T05:24:18.328Z,15.90
2022-09-10T05:26:46.284Z,15.80
2022-09-10T05:29:14.005Z,15.90
2022-09-10T05:31:41.024Z,15.80
2022-09-10T05:34:08.942Z,15.80
2022-09-10T05:36:35.827Z,15.80
2022-09-10T05:39:05.676Z,15.90
2022-09-10T05:41:33.123Z,15.80
2022-09-10T05:43:59.981Z,15.90
2022-09-10T05:46:30.920Z,15.90
2022-09-10T05:48:58.153Z,15.90
2022-09-10T05:51:28.662Z,15.80
2022-09-10T05:53:55.553Z,15.90
2022-09-10T05:56:22.207Z,15.90
2022-09-10T05:58:49.732Z,15.90
2022-09-10T06:01:16.502Z,15.80
2022-09-10T06:03:43.170Z,15.80
2022-09-10T06:06:10.089Z,15.90
2022-09-10T06:08:37.068Z,15.80
2022-09-10T06:11:05.846Z,15.90
2022-09-10T06:13:33.966Z,15.90
2022-09-10T06:16:01.325Z,15.90
2022-09-10T06:18:28.678Z,15.90
2022-09-10T06:21:25.016Z,15.90
2022-09-10T06:23:54.729Z,15.90
2022-09-10T06:26:21.426Z,15.90
2022-09-10T06:28:49.856Z,16.00
2022-09-10T06:31:20.071Z,16.00
2022-09-10T06:33:49.022Z,16.00
2022-09-10T06:36:15.894Z,16.00
2022-09-10T06:38:45.054Z,16.00
2022-09-10T06:41:13.643Z,16.00
2022-09-10T06:43:41.393Z,16.00
2022-09-10T06:46:40.845Z,16.10
2022-09-10T06:49:03.682Z,16.00
2022-09-10T06:51:31.099Z,16.10
2022-09-10T06:53:57.885Z,16.10
2022-09-10T06:56:24.645Z,16.10
2022-09-10T06:58:51.754Z,16.10
2022-09-10T07:01:21.551Z,16.20
2022-09-10T07:03:48.491Z,16.20
2022-09-10T07:06:17.056Z,16.20
2022-09-10T07:08:44.226Z,17.30
2022-09-10T07:11:12.972Z,16.30
2022-09-10T07:13:42.251Z,16.30
2022-09-10T07:16:09.687Z,16.30
2022-09-10T07:18:36.748Z,16.40
2022-09-10T07:21:11.919Z,16.30
2022-09-10T07:23:41.867Z,16.40
2022-09-10T07:26:11.509Z,16.50
2022-09-10T07:28:39.813Z,16.50
2022-09-10T07:31:25.628Z,16.50
2022-09-10T07:33:52.864Z,16.50
2022-09-10T07:36:19.539Z,16.70
2022-09-10T07:38:46.477Z,16.60
2022-09-10T07:41:15.447Z,16.60
2022-09-10T07:43:43.811Z,16.60
2022-09-10T07:46:13.325Z,16.70
2022-09-10T07:48:41.578Z,16.80
2022-09-10T07:51:10.814Z,16.80
2022-09-10T07:53:38.623Z,16.80
2022-09-10T07:56:07.952Z,16.90
2022-09-10T07:58:36.000Z,16.90
2022-09-10T08:01:09.029Z,17.00
2022-09-10T08:03:35.777Z,17.00
2022-09-10T08:06:03.262Z,17.10
2022-09-10T08:08:34.876Z,17.10
2022-09-10T08:11:13.028Z,17.10
2022-09-10T08:13:46.176Z,17.20
2022-09-10T08:16:15.554Z,17.20
2022-09-10T08:18:46.955Z,17.20
2022-09-10T08:21:14.553Z,17.30
2022-09-10T08:23:41.657Z,17.30
2022-09-10T08:26:08.668Z,17.30
2022-09-10T08:28:36.314Z,17.40
2022-09-10T08:31:08.914Z,17.40
2022-09-10T08:33:39.863Z,17.50
2022-09-10T08:36:12.054Z,17.50
2022-09-10T08:38:40.210Z,17.50
2022-09-10T08:41:49.409Z,17.70
2022-09-10T08:44:25.275Z,17.60
2022-09-10T08:46:56.437Z,17.60
2022-09-10T08:49:42.237Z,17.70
2022-09-10T08:52:33.943Z,17.70
2022-09-10T08:55:23.422Z,17.80
2022-09-10T08:58:01.658Z,17.90
2022-09-10T09:00:33.419Z,17.90
2022-09-10T09:03:10.002Z,17.90
2022-09-10T09:06:00.880Z,18.00
2022-09-10T09:08:35.558Z,18.10
2022-09-10T09:11:20.439Z,18.10
2022-09-10T09:13:56.509Z,18.10
2022-09-10T09:16:26.325Z,18.20
2022-09-10T09:19:24.086Z,18.20
2022-09-10T09:21:56.153Z,18.30
2022-09-10T09:24:58.931Z,18.30
2022-09-10T09:27:30.088Z,18.30
2022-09-10T09:30:01.799Z,18.30
2022-09-10T09:32:33.901Z,18.40
2022-09-10T09:35:32.583Z,18.40
2022-09-10T09:38:08.167Z,18.40
2022-09-10T09:41:07.363Z,18.50
2022-09-10T09:43:52.812Z,18.50
2022-09-10T09:46:21.548Z,18.60
2022-09-10T09:48:53.731Z,18.40
2022-09-10T09:51:21.441Z,18.60
2022-09-10T09:54:00.976Z,18.60
2022-09-10T09:56:42.164Z,18.70
2022-09-10T09:59:21.860Z,18.80
2022-09-10T10:01:48.860Z,18.80
2022-09-10T10:04:24.688Z,18.80
2022-09-10T10:06:59.963Z,18.90
2022-09-10T10:09:28.981Z,18.90
2022-09-10T10:11:57.927Z,19.00
2022-09-10T10:14:35.310Z,19.00
2022-09-10T10:17:02.593Z,19.00
2022-09-10T10:19:29.337Z,19.00
2022-09-10T10:21:56.055Z,19.00
2022-09-10T10:24:33.835Z,19.10
2022-09-10T10:27:00.881Z,19.00
2022-09-10T10:29:28.487Z,19.10
2022-09-10T10:31:56.312Z,19.10
2022-09-10T10:34:35.538Z,19.10
2022-09-10T10:37:16.252Z,19.40
2022-09-10T10:40:03.354Z,19.10
2022-09-10T10:42:51.246Z,19.10
2022-09-10T10:45:36.610Z,19.20
2022-09-10T10:48:37.423Z,19.20
2022-09-10T10:51:07.343Z,19.60
2022-09-10T10:54:02.911Z,19.30
2022-09-10T10:56:42.699Z,19.30
2022-09-10T10:59:37.151Z,19.30
2022-09-10T11:02:20.461Z,19.30
2022-09-10T11:05:03.583Z,19.40
2022-09-10T11:07:39.455Z,19.40
2022-09-10T11:10:20.073Z,19.40
2022-09-10T11:13:23.947Z,19.70
2022-09-10T11:16:05.702Z,19.50
2022-09-10T11:18:43.877Z,19.50
2022-09-10T11:21:13.327Z,19.50
2022-09-10T11:23:46.326Z,19.40
2022-09-10T11:26:18.666Z,19.50
2022-09-10T11:29:43.942Z,19.50
2022-09-10T11:32:19.158Z,19.60
2022-09-10T11:35:08.518Z,19.60
2022-09-10T11:37:47.616Z,19.60
2022-09-10T11:40:27.739Z,19.60
2022-09-10T11:42:59.988Z,19.60
2022-09-10T11:45:53.682Z,19.50
2022-09-10T11:48:29.105Z,19.60
2022-09-10T11:51:10.707Z,19.60
2022-09-10T11:53:37.458Z,19.60
2022-09-10T11:56:10.275Z,19.60
2022-09-10T11:58:47.380Z,19.70
2022-09-10T12:01:49.933Z,19.70
2022-09-10T12:04:22.352Z,19.80
2022-09-10T12:07:04.375Z,19.80
2022-09-10T12:09:58.249Z,19.80
2022-09-10T12:12:42.478Z,19.90
2022-09-10T12:15:21.709Z,19.90
2022-09-10T12:17:54.464Z,19.90
2022-09-10T12:20:31.947Z,20.00
2022-09-10T12:22:59.753Z,19.90
2022-09-10T12:25:34.583Z,19.90
2022-09-10T12:28:06.439Z,20.00
2022-09-10T12:30:35.927Z,20.00
2022-09-10T12:33:17.464Z,19.90
2022-09-10T12:35:47.753Z,19.90
2022-09-10T12:38:48.826Z,19.90
2022-09-10T12:41:24.761Z,20.00
2022-09-10T12:44:01.376Z,19.90
2022-09-10T12:46:44.998Z,18.80
2022-09-10T12:49:16.610Z,20.80
2022-09-10T12:52:03.192Z,20.00
2022-09-10T12:54:53.742Z,19.90
2022-09-10T12:57:42.105Z,19.90
2022-09-10T13:00:17.975Z,19.80
2022-09-10T13:02:58.315Z,20.10
2022-09-10T13:05:48.247Z,20.10
2022-09-10T13:08:41.471Z,20.20
2022-09-10T13:11:23.775Z,20.30
2022-09-10T13:14:01.031Z,20.30
2022-09-10T13:16:27.993Z,20.40
2022-09-10T13:19:14.906Z,20.40
2022-09-10T13:21:44.332Z,20.50
2022-09-10T13:24:37.440Z,20.40
2022-09-10T13:27:34.687Z,20.50
2022-09-10T13:30:28.741Z,20.50
2022-09-10T13:33:04.401Z,20.50
2022-09-10T13:36:10.701Z,20.60
2022-09-10T13:39:09.737Z,20.50
2022-09-10T13:41:51.533Z,20.60
2022-09-10T13:44:40.258Z,20.70
2022-09-10T13:47:15.372Z,20.70
2022-09-10T13:50:25.499Z,20.70
2022-09-10T13:53:00.023Z,20.60
2022-09-10T13:55:30.458Z,20.50
2022-09-10T13:58:16.547Z,20.50
2022-09-10T14:00:53.746Z,20.50
2022-09-10T14:03:24.817Z,20.80
2022-09-10T14:06:05.149Z,20.50
2022-09-10T14:08:35.680Z,20.30
2022-09-10T14:11:16.456Z,20.20
2022-09-10T14:13:51.843Z,20.20
2022-09-10T14:16:28.312Z,20.20
2022-09-10T14:18:59.782Z,20.20
2022-09-10T14:21:27.530Z,20.10
2022-09-10T14:23:57.195Z,20.10
2022-09-10T14:26:30.184Z,20.00
2022-09-10T14:29:03.457Z,19.90
2022-09-10T14:31:37.551Z,20.00
2022-09-10T14:34:24.866Z,19.50
2022-09-10T14:36:51.665Z,20.00
2022-09-10T14:39:20.518Z,20.00
2022-09-10T14:41:48.286Z,20.10
2022-09-10T14:44:24.017Z,20.50
2022-09-10T14:46:54.200Z,20.00
2022-09-10T14:49:41.867Z,20.00
2022-09-10T14:52:11.823Z,20.00
2022-09-10T14:54:38.710Z,20.00
2022-09-10T14:57:14.737Z,20.10
2022-09-10T14:59:43.871Z,20.10
2022-09-10T15:02:13.622Z,20.30
2022-09-10T15:04:40.440Z,20.00
2022-09-10T15:07:10.128Z,20.00
2022-09-10T15:09:36.834Z,20.00
2022-09-10T15:12:13.548Z,20.00
2022-09-10T15:14:40.275Z,19.90
2022-09-10T15:17:06.970Z,20.50
2022-09-10T15:19:33.701Z,19.90
2022-09-10T15:22:00.548Z,19.90
2022-09-10T15:24:28.297Z,19.80
2022-09-10T15:26:56.416Z,19.90
2022-09-10T15:29:23.790Z,19.90
2022-09-10T15:31:51.717Z,19.90
2022-09-10T15:34:19.413Z,19.90
2022-09-10T15:36:47.488Z,19.90
2022-09-10T15:39:14.252Z,19.90
2022-09-10T15:41:42.551Z,19.80
2022-09-10T15:44:09.694Z,19.80
2022-09-10T15:46:39.952Z,19.70
2022-09-10T15:49:06.661Z,19.70
2022-09-10T15:51:33.380Z,19.70
2022-09-10T15:54:04.793Z,19.70
2022-09-10T15:56:32.655Z,19.60
2022-09-10T15:58:59.772Z,19.80
2022-09-10T16:01:30.991Z,19.50
2022-09-10T16:04:02.886Z,19.50
2022-09-10T16:06:33.434Z,19.50
2022-09-10T16:09:03.240Z,19.40
2022-09-10T16:11:32.309Z,19.40
2022-09-10T16:14:04.338Z,19.30
2022-09-10T16:16:32.255Z,19.20
2022-09-10T16:19:00.138Z,19.20
2022-09-10T16:21:29.644Z,19.20
2022-09-10T16:23:58.663Z,19.10
2022-09-10T16:26:28.660Z,19.10
2022-09-10T16:29:00.477Z,19.00
2022-09-10T16:31:36.284Z,19.00
2022-09-10T16:34:05.930Z,18.90
2022-09-10T16:36:34.599Z,18.90
2022-09-10T16:39:01.818Z,18.90
2022-09-10T16:41:29.298Z,18.80
2022-09-10T16:43:58.655Z,18.80
2022-09-10T16:46:26.792Z,18.80
2022-09-10T16:48:54.818Z,18.70
2022-09-10T16:51:24.325Z,18.70
2022-09-10T16:54:02.631Z,18.70
2022-09-10T16:56:34.178Z,18.70
2022-09-10T16:59:02.375Z,18.60
2022-09-10T17:01:29.708Z,18.60
2022-09-10T17:03:56.831Z,18.50
2022-09-10T17:06:25.794Z,18.50
2022-09-10T17:08:57.760Z,18.40
2022-09-10T17:11:26.397Z,18.50
2022-09-10T17:13:54.290Z,18.40
2022-09-10T17:16:21.007Z,18.60
2022-09-10T17:18:54.363Z,18.30
2022-09-10T17:21:21.047Z,18.30
2022-09-10T17:23:47.705Z,18.30
2022-09-10T17:26:14.443Z,18.20
2022-09-10T17:28:41.831Z,18.20
2022-09-10T17:31:08.646Z,18.10
2022-09-10T17:33:35.508Z,18.00
2022-09-10T17:36:03.915Z,18.00
2022-09-10T17:38:33.207Z,18.00
2022-09-10T17:41:03.320Z,17.90
2022-09-10T17:43:34.719Z,17.90
2022-09-10T17:46:06.097Z,17.80
2022-09-10T17:48:34.497Z,17.80
2022-09-10T17:51:01.902Z,17.70
2022-09-10T17:53:28.910Z,17.60
2022-09-10T17:56:01.243Z,17.80
2022-09-10T17:58:27.926Z,18.30
2022-09-10T18:00:58.894Z,17.40
2022-09-10T18:03:25.741Z,17.30
2022-09-10T18:05:52.805Z,17.40
2022-09-10T18:08:19.503Z,17.20
2022-09-10T18:10:46.689Z,17.30
2022-09-10T18:13:14.240Z,17.30
2022-09-10T18:15:46.459Z,17.20
2022-09-10T18:18:13.315Z,17.20
2022-09-10T18:20:39.986Z,17.10
2022-09-10T18:23:07.118Z,17.40
2022-09-10T18:25:33.892Z,16.90
2022-09-10T18:28:03.422Z,17.00
2022-09-10T18:30:30.752Z,16.90
2022-09-10T18:32:57.678Z,16.80
2022-09-10T18:35:24.423Z,16.70
2022-09-10T18:37:51.869Z,16.70
2022-09-10T18:40:19.627Z,16.60
2022-09-10T18:42:47.810Z,16.70
2022-09-10T18:45:15.039Z,16.70
2022-09-10T18:47:45.200Z,16.70
2022-09-10T18:50:13.344Z,16.60
2022-09-10T18:52:40.208Z,16.60
2022-09-10T18:55:07.241Z,16.60
2022-09-10T18:57:33.913Z,16.50
2022-09-10T19:00:02.871Z,16.50
2022-09-10T19:02:29.765Z,16.50
2022-09-10T19:05:12.517Z,16.40
2022-09-10T19:07:39.666Z,16.40
2022-09-10T19:10:07.487Z,16.30
2022-09-10T19:12:34.470Z,16.30
2022-09-10T19:15:01.155Z,16.20
2022-09-10T19:17:28.028Z,16.20
2022-09-10T19:19:54.687Z,16.20
2022-09-10T19:22:21.353Z,16.20
2022-09-10T19:24:55.060Z,16.10
2022-09-10T19:27:22.910Z,16.10
2022-09-10T19:29:50.167Z,16.00
2022-09-10T19:32:17.668Z,16.00
2022-09-10T19:34:44.465Z,16.00
2022-09-10T19:37:11.291Z,16.70
2022-09-10T19:39:38.513Z,15.90
2022-09-10T19:42:06.919Z,15.80
2022-09-10T19:44:33.830Z,15.80
2022-09-10T19:47:00.656Z,15.70
2022-09-10T19:49:27.575Z,15.80
2022-09-10T19:51:54.266Z,17.50
2022-09-10T19:54:22.792Z,15.60
2022-09-10T19:56:49.833Z,15.90
2022-09-10T19:59:16.965Z,15.50
2022-09-10T20:01:45.917Z,15.50
2022-09-10T20:04:14.087Z,15.50
2022-09-10T20:06:42.460Z,15.40
2022-09-10T20:09:12.629Z,15.40
2022-09-10T20:11:39.505Z,15.50
2022-09-10T20:14:11.255Z,15.30
2022-09-10T20:16:39.891Z,15.40
2022-09-10T20:19:07.797Z,15.50
2022-09-10T20:21:35.810Z,15.30
2022-09-10T20:24:02.687Z,16.60
2022-09-10T20:26:34.619Z,15.30
2022-09-10T20:29:03.993Z,15.40
2022-09-10T20:31:33.739Z,15.40
2022-09-10T20:34:03.560Z,15.30
2022-09-10T20:36:32.055Z,15.40
2022-09-10T20:38:59.097Z,15.40
2022-09-10T20:41:30.339Z,15.40
2022-09-10T20:43:59.012Z,16.30
2022-09-10T20:46:27.307Z,15.40
2022-09-10T20:48:55.022Z,15.40
2022-09-10T20:51:21.726Z,15.50
2022-09-10T20:53:48.507Z,15.50
2022-09-10T20:56:18.288Z,15.50
2022-09-10T20:58:46.343Z,15.50
2022-09-10T21:01:17.398Z,15.50
2022-09-10T21:03:44.863Z,15.50
2022-09-10T21:06:13.544Z,15.60
2022-09-10T21:08:42.152Z,15.60
2022-09-10T21:11:20.630Z,15.60
2022-09-10T21:13:50.380Z,15.60
2022-09-10T21:16:19.854Z,15.60
2022-09-10T21:18:53.605Z,15.60
2022-09-10T21:21:23.511Z,16.00
2022-09-10T21:23:52.352Z,15.60
2022-09-10T21:26:21.787Z,15.70
2022-09-10T21:28:51.226Z,15.70
2022-09-10T21:31:18.076Z,15.70
2022-09-10T21:33:46.173Z,15.80
2022-09-10T21:36:15.452Z,15.60
2022-09-10T21:38:46.413Z,15.70
2022-09-10T21:41:15.412Z,15.70
2022-09-10T21:43:43.840Z,15.70
2022-09-10T21:46:11.637Z,15.70
2022-09-10T21:48:39.964Z,15.10
2022-09-10T21:51:18.195Z,15.70
2022-09-10T21:53:45.587Z,15.60
2022-09-10T21:56:14.631Z,15.60
2022-09-10T21:58:43.439Z,15.60
2022-09-10T22:01:17.564Z,15.50
2022-09-10T22:03:47.188Z,15.60
2022-09-10T22:06:15.228Z,15.60
2022-09-10T22:08:43.901Z,15.60
2022-09-10T22:11:15.385Z,15.60
2022-09-10T22:13:43.658Z,15.60
2022-09-10T22:16:14.796Z,15.60
2022-09-10T22:18:42.107Z,15.60
2022-09-10T22:21:09.715Z,15.60
2022-09-10T22:23:38.395Z,15.90
2022-09-10T22:26:10.155Z,15.60
2022-09-10T22:28:38.351Z,15.60
2022-09-10T22:31:10.742Z,15.50
2022-09-10T22:33:38.865Z,15.50
2022-09-10T22:36:23.688Z,15.50
2022-09-10T22:39:01.689Z,15.50
2022-09-10T22:41:29.980Z,15.50
2022-09-10T22:43:57.142Z,15.50
2022-09-10T22:46:24.426Z,15.50
2022-09-10T22:48:51.226Z,15.90
2022-09-10T22:51:20.414Z,15.50
2022-09-10T22:53:48.178Z,15.50
2022-09-10T22:56:17.676Z,15.70
2022-09-10T22:58:45.666Z,15.50
2022-09-10T23:01:15.272Z,15.50
2022-09-10T23:03:43.275Z,15.50
2022-09-10T23:06:19.041Z,15.50
2022-09-10T23:08:48.406Z,15.50
2022-09-10T23:11:21.148Z,15.40
2022-09-10T23:13:54.004Z,15.50
2022-09-10T23:16:23.475Z,15.40
2022-09-10T23:18:54.788Z,15.40
2022-09-10T23:21:24.128Z,15.50
2022-09-10T23:23:53.650Z,15.40
2022-09-10T23:26:21.874Z,15.40
2022-09-10T23:28:49.302Z,15.40
2022-09-10T23:31:21.636Z,15.40
2022-09-10T23:33:55.390Z,15.40
2022-09-10T23:36:22.759Z,15.40
2022-09-10T23:38:49.616Z,15.80
2022-09-10T23:41:16.692Z,15.40
2022-09-10T23:43:44.513Z,15.40
2022-09-10T23:46:12.374Z,15.40
2022-09-10T23:48:39.540Z,15.40
2022-09-10T23:51:06.715Z,15.40
2022-09-10T23:53:33.784Z,15.30
2022-09-10T23:56:02.766Z,15.40
2022-09-10T23:58:29.949Z,15.40
